KRIL/RIL METAR and TAF weather

Enter ICAO airport designator
Station Type Date Time Source
KRIL METAR 2019/12/10 05:53 UTC NOAA

KRIL 100553Z AUTO 18003KT 10SM SCT033 M04/M06 A3015 RMK AO2 SLP225 T10391061 10033 21039 51009


Station Type Date Time Source
KRIL Decoded METAR 2019/12/10 05:53 UTC NOAA

RIFLE GARFIELD COUNTY RGNL, CO, United States (KRIL) 39-31N 107-44W 1678M
Dec 10, 2019 - 12:53 AM EST / 2019.12.10 0553 UTC
Wind: from the S (180 degrees) at 3 MPH (3 KT):0
Visibility: 10 mile(s):0
Sky conditions: partly cloudy
Temperature: 25.0 F (-3.9 C)
Dew Point: 21.0 F (-6.1 C)
Relative Humidity: 84%
Pressure (altimeter): 30.15 in. Hg (1020 hPa)
Pressure tendency: 0.03 inches (0.9 hPa) higher than three hours ago
ob: KRIL 100553Z AUTO 18003KT 10SM SCT033 M04/M06 A3015 RMK AO2 SLP225 T10391061 10033 21039 51009
cycle: 6

Station Type Date Time Source
KRIL TAF 2019/12/10 06:42 UTC NOAA

TAF KRIL 100540Z 1006/1106 VRB05KT P6SM SCT200
FM101300 00000KT P6SM SCT150
FM102000 VRB03KT P6SM FEW250
FM110000 VRB03KT P6SM BKN250

Example: see airport list